Time;durP1;ratioP1;P1;durP2;ratioP2;P2;SDS_P1;SDS_P2;PMS_P1;PMS_P2;Temp;Humidity;BMP_temperature;BMP_pressure;BME280_temperature;BME280_humidity;BME280_pressure;Samples;Min_cycle;Max_cycle;Signal;HPM_P1;HPM_P2
2020/12/18 11:36:37;;;;;;;49.13;34.97;;;19.10;99.90;;;;;;5128995;28;20452;-52
2020/12/18 11:39:41;;;;;;;51.40;36.67;;;18.80;99.90;;;;;;5051897;28;1680365;-54
2020/12/18 11:42:46;;;;;;;51.80;38.00;;;18.20;99.90;;;;;;5073388;28;20044;-51
2020/12/18 11:45:50;;;;;;;56.47;37.40;;;16.90;99.90;;;;;;5096876;28;20051;-53
2020/12/18 11:48:55;;;;;;;53.97;37.50;;;16.40;99.90;;;;;;5104824;28;20047;-54
2020/12/18 11:51:59;;;;;;;56.17;39.20;;;16.20;99.90;;;;;;5097391;28;20046;-53
2020/12/18 11:55:04;;;;;;;55.97;40.63;;;15.60;99.90;;;;;;5081846;28;20047;-51
2020/12/18 11:58:08;;;;;;;54.63;38.60;;;15.20;99.90;;;;;;5105892;28;20039;-51
2020/12/18 12:01:12;;;;;;;83.05;57.72;;;16.10;99.90;;;;;;5105483;28;20047;-51
2020/12/18 12:04:17;;;;;;;34.17;26.25;;;19.90;99.90;;;;;;5105657;28;20042;-51
2020/12/18 12:07:21;;;;;;;31.30;24.23;;;24.00;99.00;;;;;;5104683;28;20039;-52
2020/12/18 12:10:26;;;;;;;28.17;18.75;;;27.50;92.60;;;;;;5100860;28;20444;-56
2020/12/18 12:13:30;;;;;;;21.88;19.02;;;30.20;82.10;;;;;;5086738;28;20047;-54
2020/12/18 12:16:35;;;;;;;17.02;14.93;;;32.40;69.40;;;;;;5097074;28;20042;-53
2020/12/18 12:19:39;;;;;;;22.10;18.13;;;31.90;64.00;;;;;;5097430;28;20043;-53
2020/12/18 12:22:43;;;;;;;17.48;14.98;;;31.00;65.90;;;;;;5097795;28;20051;-53
2020/12/18 12:25:47;;;;;;;18.80;15.77;;;31.90;63.50;;;;;;5092603;28;20039;-54
2020/12/18 12:28:52;;;;;;;15.40;13.77;;;32.10;60.00;;;;;;5086408;28;20047;-52
2020/12/18 12:31:56;;;;;;;14.57;13.07;;;32.50;61.40;;;;;;5096724;28;20042;-52
2020/12/18 12:35:00;;;;;;;16.85;13.93;;;33.50;60.30;;;;;;5090791;28;20504;-53
2020/12/18 12:38:06;;;;;;;17.52;15.30;;;34.20;57.60;;;;;;5086572;28;20039;-54
2020/12/18 12:41:11;;;;;;;18.42;16.33;;;34.20;56.90;;;;;;5090420;28;20043;-57
2020/12/18 12:44:15;;;;;;;19.85;16.33;;;33.50;55.70;;;;;;5089166;28;20410;-54
2020/12/18 12:47:19;;;;;;;20.17;17.70;;;33.20;57.10;;;;;;5082932;28;20047;-53
2020/12/18 12:50:23;;;;;;;18.92;16.02;;;32.80;56.30;;;;;;5079385;28;20047;-54
2020/12/18 12:53:27;;;;;;;18.05;15.48;;;32.50;58.30;;;;;;5090155;28;20059;-56
2020/12/18 12:56:33;;;;;;;19.33;16.85;;;30.10;57.20;;;;;;5093317;28;20098;-54
2020/12/18 12:59:37;;;;;;;22.25;18.08;;;28.20;61.00;;;;;;5093924;28;20055;-54
2020/12/18 13:02:41;;;;;;;22.08;18.17;;;26.90;62.50;;;;;;5088449;28;20406;-53
2020/12/18 13:05:45;;;;;;;19.92;16.30;;;25.90;63.60;;;;;;5089909;28;20054;-52
2020/12/18 13:08:50;;;;;;;19.45;17.00;;;26.80;66.20;;;;;;5080067;28;20046;-54
2020/12/18 13:11:55;;;;;;;20.08;17.05;;;28.30;63.30;;;;;;5092658;28;20046;-55
2020/12/18 13:15:00;;;;;;;22.75;17.58;;;28.30;63.20;;;;;;5092566;28;20039;-52
2020/12/18 13:18:06;;;;;;;17.70;15.20;;;27.40;63.90;;;;;;5093416;28;20043;-56
2020/12/18 13:21:10;;;;;;;18.15;15.85;;;26.70;65.30;;;;;;5082594;28;20406;-54
2020/12/18 13:24:14;;;;;;;16.98;14.18;;;24.70;67.00;;;;;;5073247;28;20047;-52
2020/12/18 13:27:18;;;;;;;20.67;15.00;;;23.90;69.70;;;;;;5091970;28;20039;-52
2020/12/18 13:30:22;;;;;;;20.55;14.73;;;24.70;68.30;;;;;;5092271;28;20039;-52
2020/12/18 13:33:27;;;;;;;16.88;12.85;;;25.90;68.50;;;;;;5092947;28;20043;-53
2020/12/18 13:36:31;;;;;;;16.52;13.57;;;27.30;65.90;;;;;;5093486;28;20043;-53
2020/12/18 13:39:35;;;;;;;19.30;14.73;;;25.80;65.80;;;;;;5081061;28;20047;-56
2020/12/18 13:42:39;;;;;;;16.30;14.18;;;25.40;68.20;;;;;;5093259;28;20063;-53
2020/12/18 13:45:44;;;;;;;18.80;15.05;;;26.80;67.00;;;;;;5092463;28;20059;-57
2020/12/18 13:48:47;;;;;;;13.63;11.63;;;27.40;66.60;;;;;;5080124;28;20048;-53
2020/12/18 13:51:52;;;;;;;15.43;11.27;;;27.50;65.10;;;;;;5083057;28;20043;-52
2020/12/18 13:54:56;;;;;;;14.90;11.35;;;27.50;66.20;;;;;;5073135;28;20039;-54
2020/12/18 13:58:00;;;;;;;16.80;12.38;;;25.80;65.60;;;;;;5076814;28;20040;-53
2020/12/18 14:01:04;;;;;;;19.38;14.30;;;26.20;66.90;;;;;;5092171;28;20043;-52
2020/12/18 14:04:08;;;;;;;16.30;12.20;;;26.10;66.80;;;;;;5092068;28;20110;-55
2020/12/18 14:07:12;;;;;;;15.73;12.25;;;26.80;67.00;;;;;;5092307;28;20062;-53
2020/12/18 14:10:16;;;;;;;18.60;12.73;;;27.40;65.80;;;;;;5073763;28;20130;-53
2020/12/18 14:13:20;;;;;;;17.83;12.88;;;27.10;64.80;;;;;;5086312;28;20086;-55
2020/12/18 14:16:24;;;;;;;15.18;12.10;;;26.40;64.30;;;;;;5081744;28;20030;-52
2020/12/18 14:19:29;;;;;;;15.07;11.23;;;24.00;67.70;;;;;;5082011;28;20048;-52
2020/12/18 14:22:33;;;;;;;18.30;13.15;;;22.60;73.20;;;;;;5087459;28;20047;-52
2020/12/18 14:25:37;;;;;;;20.65;14.30;;;23.50;73.70;;;;;;5084293;28;20051;-52
2020/12/18 14:28:42;;;;;;;21.60;15.65;;;23.20;72.60;;;;;;5081660;28;20540;-55
2020/12/18 14:31:46;;;;;;;21.02;15.00;;;23.50;73.50;;;;;;5081333;28;20398;-53
2020/12/18 14:34:50;;;;;;;20.98;15.50;;;23.00;73.90;;;;;;5081587;28;20043;-52
2020/12/18 14:37:54;;;;;;;18.60;14.48;;;22.30;75.50;;;;;;5080700;28;20401;-52
2020/12/18 14:40:58;;;;;;;21.38;15.35;;;21.60;77.70;;;;;;5082862;28;20047;-52
2020/12/18 14:44:04;;;;;;;21.65;13.88;;;21.50;79.70;;;;;;5085796;28;20040;-52
2020/12/18 14:47:09;;;;;;;19.25;14.25;;;21.90;78.80;;;;;;5089570;28;20051;-53
2020/12/18 14:50:13;;;;;;;20.02;14.43;;;22.60;77.80;;;;;;5089175;28;20043;-52
2020/12/18 14:53:17;;;;;;;17.48;12.88;;;22.30;78.40;;;;;;5088162;28;20047;-52
2020/12/18 14:56:22;;;;;;;18.08;12.88;;;22.30;78.20;;;;;;5085482;28;20310;-52
2020/12/18 14:59:26;;;;;;;20.90;14.27;;;21.60;79.70;;;;;;5091567;28;20046;-54
2020/12/18 15:02:31;;;;;;;22.83;14.50;;;19.90;83.00;;;;;;5106655;28;20067;-52
2020/12/18 15:05:35;;;;;;;20.10;13.35;;;19.80;86.20;;;;;;5106628;28;20516;-53
2020/12/18 15:08:39;;;;;;;17.20;13.18;;;19.30;87.30;;;;;;5104583;28;20062;-52
2020/12/18 15:11:44;;;;;;;17.00;13.02;;;18.10;91.30;;;;;;5102755;28;20043;-52
2020/12/18 15:14:48;;;;;;;18.45;12.05;;;18.30;92.70;;;;;;5085645;28;20035;-52
2020/12/18 15:17:53;;;;;;;21.48;14.13;;;18.20;93.50;;;;;;5097758;28;20397;-52
2020/12/18 15:20:57;;;;;;;19.30;13.23;;;18.20;94.80;;;;;;5097662;28;20054;-54
2020/12/18 15:24:01;;;;;;;21.60;13.20;;;17.90;96.00;;;;;;5099570;28;20046;-52
2020/12/18 15:27:05;;;;;;;18.30;13.23;;;17.70;97.50;;;;;;5092086;28;20047;-52
2020/12/18 15:30:10;;;;;;;23.90;14.07;;;17.30;99.50;;;;;;5086419;28;20042;-52
2020/12/18 15:33:14;;;;;;;26.80;16.00;;;16.80;99.90;;;;;;5097957;28;20503;-52
2020/12/18 15:36:22;;;;;;;23.08;16.02;;;16.10;99.90;;;;;;5097821;28;20043;-52
2020/12/18 15:39:29;;;;;;;25.20;17.35;;;15.50;99.90;;;;;;5098410;28;20516;-51
2020/12/18 15:42:34;;;;;;;28.65;17.38;;;15.00;99.90;;;;;;5103407;28;20051;-52
2020/12/18 15:45:38;;;;;;;32.30;18.70;;;14.50;99.90;;;;;;5103319;28;20043;-53
2020/12/18 15:48:43;;;;;;;26.05;18.05;;;14.20;99.90;;;;;;5097810;28;20053;-55
2020/12/18 15:51:52;;;;;;;30.38;18.38;;;13.90;99.90;;;;;;5097290;28;20039;-55
2020/12/18 15:54:56;;;;;;;31.95;20.15;;;13.70;99.90;;;;;;5110785;28;20035;-53
2020/12/18 15:58:01;;;;;;;28.33;18.98;;;13.50;99.90;;;;;;5104137;28;20039;-55
2020/12/18 16:01:05;;;;;;;27.15;17.75;;;13.30;99.90;;;;;;5097148;28;20046;-53
2020/12/18 16:04:09;;;;;;;29.00;18.92;;;13.00;99.90;;;;;;5097391;28;20039;-56
2020/12/18 16:07:14;;;;;;;26.73;17.50;;;12.90;99.90;;;;;;5091231;28;20043;-52
2020/12/18 16:10:18;;;;;;;26.67;18.73;;;12.70;99.90;;;;;;5086278;28;20050;-53
2020/12/18 16:13:28;;;;;;;40.75;27.13;;;12.60;99.90;;;;;;5090407;28;20047;-53
2020/12/18 16:16:33;;;;;;;45.38;27.23;;;12.40;99.90;;;;;;5083747;28;20043;-51
2020/12/18 16:19:37;;;;;;;47.72;32.35;;;12.30;99.90;;;;;;5075611;28;20039;-51
2020/12/18 16:22:40;;;;;;;88.07;53.28;;;12.10;99.90;;;;;;5084008;28;20047;-52
2020/12/18 16:25:45;;;;;;;136.35;88.80;;;12.00;99.90;;;;;;5076989;28;20063;-52
2020/12/18 16:28:48;;;;;;;206.05;136.38;;;11.80;99.90;;;;;;5090001;28;20509;-51
2020/12/18 16:31:53;;;;;;;160.45;105.15;;;11.70;99.90;;;;;;5093236;28;20043;-52
2020/12/18 16:34:57;;;;;;;157.68;104.90;;;11.70;99.90;;;;;;5081785;28;20398;-52
2020/12/18 16:38:02;;;;;;;122.80;83.57;;;11.60;99.90;;;;;;5084261;28;20039;-51
2020/12/18 16:41:07;;;;;;;123.40;86.50;;;11.60;99.90;;;;;;5081215;28;20069;-52
2020/12/18 16:44:11;;;;;;;91.97;60.85;;;11.50;99.90;;;;;;5094021;28;20058;-53
2020/12/18 16:47:16;;;;;;;105.00;64.78;;;11.40;99.90;;;;;;5093989;28;20040;-54
2020/12/18 16:50:21;;;;;;;109.53;69.32;;;11.40;99.90;;;;;;5093712;28;20045;-54
2020/12/18 16:53:26;;;;;;;113.82;77.38;;;11.40;99.90;;;;;;5084373;28;20043;-54
2020/12/18 16:56:30;;;;;;;362.15;233.27;;;11.40;99.90;;;;;;5081628;28;20043;-52
2020/12/18 16:59:34;;;;;;;175.07;116.00;;;11.30;99.90;;;;;;5093497;28;20047;-51
2020/12/18 17:02:39;;;;;;;112.65;73.28;;;11.20;99.90;;;;;;5093149;28;20043;-51
2020/12/18 17:05:43;;;;;;;92.28;67.72;;;11.10;99.90;;;;;;5093751;28;20051;-52
2020/12/18 17:08:48;;;;;;;95.70;70.30;;;11.00;99.90;;;;;;5094439;28;20544;-51
2020/12/18 17:12:03;;;;;;;108.05;79.50;;;10.90;99.90;;;;;;5083832;28;20039;-51
2020/12/18 17:15:09;;;;;;;128.05;90.15;;;10.90;99.90;;;;;;5091950;28;20039;-53
2020/12/18 17:18:13;;;;;;;135.38;92.70;;;10.70;99.90;;;;;;5091210;28;20401;-52
2020/12/18 17:21:24;;;;;;;108.55;83.13;;;10.70;99.90;;;;;;5089658;28;20039;-55
2020/12/18 17:24:28;;;;;;;79.47;59.88;;;10.70;99.90;;;;;;5093076;28;20043;-55
2020/12/18 17:27:32;;;;;;;54.33;38.65;;;10.70;99.90;;;;;;5083206;28;20051;-55
2020/12/18 17:30:36;;;;;;;55.75;40.38;;;10.60;99.90;;;;;;5080148;28;20035;-52
2020/12/18 17:33:40;;;;;;;47.60;33.03;;;10.60;99.90;;;;;;5092563;28;20035;-52
2020/12/18 17:36:51;;;;;;;41.05;29.30;;;10.60;99.90;;;;;;5078585;28;20056;-52
2020/12/18 17:39:56;;;;;;;38.30;26.90;;;10.50;99.90;;;;;;5078835;28;20048;-52
2020/12/18 17:43:01;;;;;;;44.70;31.73;;;10.40;99.90;;;;;;5073178;28;20055;-52
2020/12/18 17:46:05;;;;;;;66.32;39.75;;;10.40;99.90;;;;;;5072684;28;20047;-51
2020/12/18 17:49:09;;;;;;;60.80;39.03;;;10.20;99.90;;;;;;5078079;28;20043;-52
2020/12/18 17:52:14;;;;;;;63.38;40.33;;;10.00;99.90;;;;;;5092391;28;20047;-52
2020/12/18 17:55:18;;;;;;;68.30;43.63;;;9.90;99.90;;;;;;5092027;28;20032;-51
2020/12/18 17:58:23;;;;;;;94.65;61.22;;;9.90;99.90;;;;;;5084934;28;20401;-52
2020/12/18 18:01:30;;;;;;;75.07;50.30;;;9.90;99.90;;;;;;5081404;28;20059;-51
2020/12/18 18:04:34;;;;;;;62.78;42.55;;;9.80;99.90;;;;;;5079708;28;20035;-53
2020/12/18 18:07:38;;;;;;;71.15;45.85;;;9.80;99.90;;;;;;5092031;28;20074;-52
2020/12/18 18:10:42;;;;;;;63.30;41.55;;;9.70;99.90;;;;;;5091307;28;20146;-53
2020/12/18 18:13:46;;;;;;;68.18;46.80;;;9.70;99.90;;;;;;5092360;28;20035;-51
2020/12/18 18:16:51;;;;;;;64.20;42.47;;;9.70;99.90;;;;;;5081882;28;20045;-57
2020/12/18 18:19:56;;;;;;;58.88;37.97;;;9.70;99.90;;;;;;5079099;28;20051;-53
2020/12/18 18:23:00;;;;;;;54.10;34.75;;;9.60;99.90;;;;;;5091564;28;20043;-57
2020/12/18 18:26:05;;;;;;;57.35;36.63;;;9.70;99.90;;;;;;5080202;28;20035;-52
2020/12/18 18:29:09;;;;;;;57.60;36.88;;;9.70;99.90;;;;;;5081095;28;20055;-54
2020/12/18 18:32:17;;;;;;;57.78;34.88;;;9.70;99.90;;;;;;5071545;28;20043;-56
2020/12/18 18:35:22;;;;;;;56.20;35.65;;;9.70;99.90;;;;;;5075764;28;20043;-54
2020/12/18 18:38:26;;;;;;;65.20;41.35;;;9.60;99.90;;;;;;5091638;28;20039;-57
2020/12/18 18:41:38;;;;;;;62.45;39.03;;;9.70;99.90;;;;;;5079058;28;20043;-55
2020/12/18 18:44:43;;;;;;;68.60;44.10;;;9.60;99.90;;;;;;5083093;28;20055;-53
2020/12/18 18:47:48;;;;;;;77.00;50.60;;;9.60;99.90;;;;;;5080259;28;20043;-53
2020/12/18 18:50:52;;;;;;;73.18;49.13;;;9.50;99.90;;;;;;5087079;28;20051;-55
2020/12/18 18:53:56;;;;;;;78.90;51.13;;;9.50;99.90;;;;;;5072825;28;20051;-56
2020/12/18 18:57:00;;;;;;;69.47;43.50;;;9.50;99.90;;;;;;5090100;28;20054;-52
2020/12/18 19:00:04;;;;;;;60.42;40.33;;;9.50;99.90;;;;;;5095227;28;20404;-52
2020/12/18 19:03:08;;;;;;;77.25;50.28;;;9.40;99.90;;;;;;5081016;28;20043;-53
2020/12/18 19:06:12;;;;;;;65.07;42.80;;;9.40;99.90;;;;;;5092315;28;20504;-54
2020/12/18 19:09:17;;;;;;;62.65;42.58;;;9.30;99.90;;;;;;5094571;28;20405;-54
2020/12/18 19:12:21;;;;;;;64.28;42.88;;;9.30;99.90;;;;;;5111096;28;20046;-52
2020/12/18 19:15:25;;;;;;;56.53;37.17;;;9.20;99.90;;;;;;5092144;28;20043;-53
2020/12/18 19:18:29;;;;;;;71.85;45.53;;;9.20;99.90;;;;;;5081075;28;20043;-51
2020/12/18 19:21:33;;;;;;;88.75;57.63;;;9.10;99.90;;;;;;5077710;28;20074;-54
2020/12/18 19:24:37;;;;;;;86.15;54.95;;;9.00;99.90;;;;;;5095959;28;20047;-53
2020/12/18 19:27:45;;;;;;;79.05;52.55;;;9.00;99.90;;;;;;5081945;28;20106;-53
2020/12/18 19:30:48;;;;;;;88.57;56.30;;;9.00;99.90;;;;;;5079783;28;20039;-53
2020/12/18 19:33:53;;;;;;;95.68;57.60;;;8.90;99.90;;;;;;5064208;28;20043;-52
2020/12/18 19:36:58;;;;;;;115.63;67.25;;;8.90;99.90;;;;;;5105076;28;20048;-53
2020/12/18 19:40:02;;;;;;;114.95;72.03;;;8.90;99.90;;;;;;5076471;28;20076;-52
2020/12/18 19:43:06;;;;;;;94.57;55.95;;;8.90;99.90;;;;;;5078917;28;20130;-52
2020/12/18 19:46:10;;;;;;;115.13;67.28;;;8.80;99.90;;;;;;5070842;28;20402;-52
2020/12/18 19:49:16;;;;;;;86.53;52.08;;;8.80;99.90;;;;;;5070984;28;20513;-51
2020/12/18 19:52:20;;;;;;;72.22;46.63;;;8.80;99.90;;;;;;5088428;28;20059;-51
2020/12/18 19:55:26;;;;;;;73.95;47.63;;;8.90;99.90;;;;;;5089813;28;20068;-52
2020/12/18 19:58:30;;;;;;;80.47;52.25;;;8.80;99.90;;;;;;5071138;28;20325;-54
2020/12/18 20:01:37;;;;;;;76.15;52.78;;;8.80;99.90;;;;;;5070364;28;20048;-51
2020/12/18 20:04:41;;;;;;;73.93;48.22;;;8.80;99.90;;;;;;5080734;28;20517;-52
2020/12/18 20:07:46;;;;;;;64.18;43.75;;;8.70;99.90;;;;;;5080723;28;20043;-52
2020/12/18 20:10:51;;;;;;;51.70;34.00;;;8.60;99.90;;;;;;5093928;28;20046;-51
2020/12/18 20:13:56;;;;;;;96.13;61.10;;;8.50;99.90;;;;;;5095956;28;20047;-52
2020/12/18 20:17:01;;;;;;;104.97;65.60;;;8.50;99.90;;;;;;5094935;28;20051;-54
2020/12/18 20:20:05;;;;;;;102.82;61.25;;;8.50;99.90;;;;;;5094690;28;20047;-52
2020/12/18 20:23:09;;;;;;;106.43;62.50;;;8.50;99.90;;;;;;5075993;28;20063;-53
2020/12/18 20:26:13;;;;;;;107.70;69.43;;;8.50;99.90;;;;;;5068977;28;20047;-54
2020/12/18 20:29:18;;;;;;;93.90;61.50;;;8.40;99.90;;;;;;5089515;28;20055;-53
2020/12/18 20:32:22;;;;;;;102.20;62.03;;;8.30;99.90;;;;;;5086345;28;20515;-57
2020/12/18 20:35:27;;;;;;;98.40;62.00;;;8.30;99.90;;;;;;5098751;28;20039;-57
2020/12/18 20:38:31;;;;;;;117.70;67.45;;;8.30;99.90;;;;;;5089980;28;20039;-53
2020/12/18 20:41:35;;;;;;;108.78;70.03;;;8.30;99.90;;;;;;5090949;28;20039;-56
2020/12/18 20:44:39;;;;;;;117.13;72.93;;;8.30;99.90;;;;;;5084768;28;20500;-56
2020/12/18 20:47:44;;;;;;;115.20;73.07;;;8.20;99.90;;;;;;5086542;28;20393;-57
2020/12/18 20:50:47;;;;;;;111.40;69.63;;;8.20;99.90;;;;;;5088894;28;20044;-54
2020/12/18 20:53:52;;;;;;;98.15;64.65;;;8.10;99.90;;;;;;5092411;28;20040;-56
2020/12/18 20:56:56;;;;;;;107.68;70.03;;;8.20;99.90;;;;;;5088654;28;20048;-57
2020/12/18 21:00:01;;;;;;;107.95;67.63;;;8.10;99.90;;;;;;5089064;28;20047;-55
2020/12/18 21:03:05;;;;;;;114.05;68.18;;;8.10;99.90;;;;;;5091373;28;20508;-56
2020/12/18 21:06:11;;;;;;;121.00;70.88;;;8.10;99.90;;;;;;5093526;28;20051;-57
2020/12/18 21:09:15;;;;;;;96.25;60.20;;;8.00;99.90;;;;;;5093821;28;20047;-56
2020/12/18 21:12:19;;;;;;;90.85;58.28;;;7.90;99.90;;;;;;5093880;28;20402;-57
2020/12/18 21:15:24;;;;;;;93.97;58.40;;;7.90;99.90;;;;;;5093817;28;20039;-58
2020/12/18 21:18:28;;;;;;;96.32;60.10;;;7.90;99.90;;;;;;5084844;28;20035;-53
2020/12/18 21:21:32;;;;;;;99.65;63.60;;;7.90;99.90;;;;;;5073487;28;20410;-54
2020/12/18 21:24:36;;;;;;;104.47;62.80;;;7.80;99.90;;;;;;5087680;28;20043;-54
2020/12/18 21:27:40;;;;;;;102.28;62.33;;;7.80;99.90;;;;;;5084056;28;20046;-56
2020/12/18 21:30:44;;;;;;;105.50;65.32;;;7.80;99.90;;;;;;5077231;28;20071;-53
2020/12/18 21:33:48;;;;;;;107.22;62.25;;;7.80;99.90;;;;;;5087770;28;20402;-53
2020/12/18 21:36:54;;;;;;;100.60;63.22;;;7.70;99.90;;;;;;5091963;28;20035;-53
2020/12/18 21:39:58;;;;;;;102.65;62.45;;;7.70;99.90;;;;;;5089837;28;20418;-54
2020/12/18 21:43:02;;;;;;;105.43;63.53;;;7.70;99.90;;;;;;5084330;28;20547;-53
2020/12/18 21:46:08;;;;;;;100.97;66.32;;;7.60;99.90;;;;;;5077780;28;20048;-54
2020/12/18 21:49:12;;;;;;;107.95;66.15;;;7.60;99.90;;;;;;5092092;28;20043;-53
2020/12/18 21:52:18;;;;;;;113.90;69.90;;;7.50;99.90;;;;;;5093691;28;20043;-53
2020/12/18 21:55:24;;;;;;;145.18;90.82;;;7.40;99.90;;;;;;5093506;28;20031;-55
2020/12/18 21:58:29;;;;;;;133.70;85.30;;;7.40;99.90;;;;;;5078202;28;20043;-57
2020/12/18 22:01:33;;;;;;;128.35;78.97;;;7.30;99.90;;;;;;5093077;28;20063;-54
2020/12/18 22:04:39;;;;;;;119.35;74.30;;;7.30;99.90;;;;;;5088104;28;20389;-54
2020/12/18 22:07:45;;;;;;;126.30;78.85;;;7.30;99.90;;;;;;5099549;28;20393;-54
2020/12/18 22:10:49;;;;;;;162.25;95.57;;;7.20;99.90;;;;;;5098920;28;20048;-54
2020/12/18 22:13:53;;;;;;;181.82;129.77;;;7.20;99.90;;;;;;5100372;28;20416;-54
2020/12/18 22:16:57;;;;;;;134.57;86.53;;;7.20;99.90;;;;;;5104153;28;20068;-55
2020/12/18 22:20:03;;;;;;;120.75;74.95;;;7.10;99.90;;;;;;5088545;28;20038;-57
2020/12/18 22:23:09;;;;;;;117.93;73.72;;;7.10;99.90;;;;;;5099180;28;20042;-53
2020/12/18 22:26:13;;;;;;;110.95;67.70;;;6.90;99.90;;;;;;5099010;28;20042;-55
2020/12/18 22:29:17;;;;;;;92.32;58.70;;;6.90;99.90;;;;;;5098566;28;20035;-56
2020/12/18 22:32:21;;;;;;;103.55;62.15;;;6.90;99.90;;;;;;5101793;28;20042;-53
2020/12/18 22:35:25;;;;;;;105.30;64.07;;;6.90;99.90;;;;;;5101966;28;20286;-54
2020/12/18 22:38:29;;;;;;;123.38;74.68;;;6.80;99.90;;;;;;5098699;28;20060;-54
2020/12/18 22:41:34;;;;;;;140.18;72.85;;;6.80;99.90;;;;;;5098209;28;20042;-54
2020/12/18 22:44:39;;;;;;;980.90;127.53;;;6.80;99.90;;;;;;5098764;28;20161;-54
2020/12/18 22:47:43;;;;;;;193.45;76.28;;;6.80;99.90;;;;;;5101206;28;20047;-57
2020/12/18 22:50:47;;;;;;;446.25;89.22;;;6.70;99.90;;;;;;5090585;28;20084;-54
2020/12/18 22:53:51;;;;;;;358.67;76.65;;;6.60;99.90;;;;;;5085314;28;20389;-57
2020/12/18 22:56:55;;;;;;;323.88;81.40;;;6.60;99.90;;;;;;5098206;28;20035;-53
2020/12/18 22:59:59;;;;;;;105.38;60.25;;;6.60;99.90;;;;;;5101503;28;20051;-53
2020/12/18 23:03:03;;;;;;;137.23;67.63;;;6.50;99.90;;;;;;5088693;28;20047;-53
2020/12/18 23:06:07;;;;;;;157.05;62.28;;;6.50;99.90;;;;;;5098394;28;20050;-56
2020/12/18 23:09:11;;;;;;;121.03;61.13;;;6.50;99.90;;;;;;5097977;28;20037;-56
2020/12/18 23:12:15;;;;;;;260.00;77.45;;;6.50;99.90;;;;;;5098212;28;20043;-53
2020/12/18 23:15:19;;;;;;;176.85;105.63;;;6.50;99.90;;;;;;5092434;28;20520;-54
2020/12/18 23:18:23;;;;;;;177.40;103.53;;;6.40;99.90;;;;;;5088889;28;20058;-54
2020/12/18 23:21:27;;;;;;;218.35;104.43;;;6.30;99.90;;;;;;5097880;28;20050;-54
2020/12/18 23:24:31;;;;;;;144.20;78.22;;;6.30;99.90;;;;;;5098004;28;20046;-56
2020/12/18 23:27:38;;;;;;;319.77;77.72;;;6.30;99.90;;;;;;5098064;28;20038;-54
2020/12/18 23:30:42;;;;;;;368.35;81.32;;;6.40;99.90;;;;;;5099956;28;20051;-55
2020/12/18 23:33:47;;;;;;;203.77;87.07;;;6.40;99.90;;;;;;5101385;28;20038;-53
2020/12/18 23:36:53;;;;;;;209.65;83.75;;;6.40;99.90;;;;;;5084727;28;20044;-56
2020/12/18 23:39:58;;;;;;;103.60;60.95;;;6.30;99.90;;;;;;5097027;28;20421;-57
2020/12/18 23:43:02;;;;;;;149.95;66.25;;;6.20;99.90;;;;;;5097539;28;20413;-56
2020/12/18 23:46:07;;;;;;;144.18;62.28;;;6.20;99.90;;;;;;5099527;28;20059;-55
2020/12/18 23:49:11;;;;;;;166.07;64.97;;;6.20;99.90;;;;;;5103093;28;20055;-54
2020/12/18 23:52:15;;;;;;;135.73;68.85;;;6.20;99.90;;;;;;5085952;28;20042;-57
2020/12/18 23:55:19;;;;;;;114.95;63.58;;;6.20;99.90;;;;;;5081970;28;20035;-58
2020/12/18 23:58:23;;;;;;;118.70;66.03;;;6.20;99.90;;;;;;5097682;28;20043;-53
